Terminal Aerodrome Forecast
Issued by NWS Bismarck, ND

Home | Current Version | Previous Version | Graphics & Text | Print | Product List | Glossary On
Versions: 1 2 3 4 5 6 7 8 9 10 11 12 13 14 15 16 17 18 19 20 21
000
FTUS43 KBIS 240500 RRA
TAFBIS
TAF
KBIS 240555Z 2406/2506 11009KT P6SM SCT150 OVC200
      TEMPO 2409/2411 -RA SCT045 BKN070
     FM241100 13011KT P6SM VCSH SCT025 BKN050 OVC090
      TEMPO 2411/2414 -RA SCT015 BKN035
     FM241400 15015KT 5SM -RA BR SCT008 BKN018 OVC035
     FM241700 22011KT 5SM -RA BR BKN012 OVC020
     FM242000 27017G24KT P6SM -RA OVC015
     FM242300 29020G28KT 4SM -RASN BKN018 OVC025=

USA.gov is the U.S. government's official web portal to all federal, state and local government web resources and services.